Pazifik — ZDKS7 — position and weather

sailwx.info

Track history (hours):
 
Tides and Currents Weather Stations Pressure Air Temp Water Temp Dewpoint Dewpoint Depression Visibility Wind Speed Wind Dir Waves Ship Positions

Pazifik

Last reported at 2014-Dec-22 21:33 UTC. Time now 2014-Dec-22 23:28 UTC.
Position N 51°21' E 003°12'.

Length 205 m; draft 7 m.

Type: Tanker. MMSI: 236111796.

Date/timePositionNaut miles runAvg speedWind from/ knotsBaromVisibWave heightAir tempDewpointWater temp
2014-Dec-22 21:33N 51°21' E 003°12'4 4.5
2014-Dec-22 20:33N 51°24' E 003°07'1111.3
2014-Dec-22 19:34N 51°21' E 002°49'7 7.3
2014-Dec-22 18:32N 51°20' E 002°38'0 0.0
2014-Dec-22 17:14N 51°20' E 002°38'0 0.1
2014-Dec-22 16:29N 51°20' E 002°38'0 0.1
2014-Dec-22 15:32N 51°20' E 002°38'3 2.9
2014-Dec-22 14:32N 51°22' E 002°36'9 9.2
2014-Dec-22 13:34N 51°20' E 002°22'1817.8
2014-Dec-22 12:33N 51°11' E 001°58'1818.5
2014-Dec-22 11:33N 50°59' E 001°35'  
2014-Dec-19 16:31N 38°42' W 009°57'1413.6
2014-Dec-19 15:31N 38°28' W 009°53'1313.6
2014-Dec-19 14:33N 38°16' W 009°49'2814.0
2014-Dec-19 12:33N 37°48' W 009°41'1514.4
2014-Dec-19 11:29N 37°33' W 009°37'1514.5
2014-Dec-19 10:26N 37°18' W 009°33'1414.5
2014-Dec-19 09:28N 37°05' W 009°29'5412.9
2014-Dec-19 05:16N 36°38' W 008°29'1815.5
2014-Dec-19 04:05N 36°38' W 008°07'5815.4
2014-Dec-19 00:19N 36°34' W 006°55'27 5.6
2014-Dec-18 19:25N 36°34' W 006°21'0 0.1
2014-Dec-18 18:33N 36°34' W 006°21'1 1.0
2014-Dec-18 17:33N 36°33' W 006°20'  
Track history (hours):
 
Tides and Currents Weather Stations Pressure Air Temp Water Temp Dewpoint Dewpoint Depression Visibility Wind Speed Wind Dir Waves Ship Positions

Pazifik

Last reported at 2014-Dec-22 21:33 UTC. Time now 2014-Dec-22 23:28 UTC.
Position N 51°21' E 003°12'.

Length 205 m; draft 7 m.

Type: Tanker. MMSI: 236111796.

Date/timePositionNaut miles runAvg speedWind from/ knotsBaromVisibWave heightAir tempDewpointWater temp
2014-Dec-22 21:33N 51°21' E 003°12'4 4.5
2014-Dec-22 20:33N 51°24' E 003°07'1111.3
2014-Dec-22 19:34N 51°21' E 002°49'7 7.3
2014-Dec-22 18:32N 51°20' E 002°38'0 0.0
2014-Dec-22 17:14N 51°20' E 002°38'0 0.1
2014-Dec-22 16:29N 51°20' E 002°38'0 0.1
2014-Dec-22 15:32N 51°20' E 002°38'3 2.9
2014-Dec-22 14:32N 51°22' E 002°36'9 9.2
2014-Dec-22 13:34N 51°20' E 002°22'1817.8
2014-Dec-22 12:33N 51°11' E 001°58'1818.5
2014-Dec-22 11:33N 50°59' E 001°35'  
2014-Dec-19 16:31N 38°42' W 009°57'1413.6
2014-Dec-19 15:31N 38°28' W 009°53'1313.6
2014-Dec-19 14:33N 38°16' W 009°49'2814.0
2014-Dec-19 12:33N 37°48' W 009°41'1514.4
2014-Dec-19 11:29N 37°33' W 009°37'1514.5
2014-Dec-19 10:26N 37°18' W 009°33'1414.5
2014-Dec-19 09:28N 37°05' W 009°29'5412.9
2014-Dec-19 05:16N 36°38' W 008°29'1815.5
2014-Dec-19 04:05N 36°38' W 008°07'5815.4
2014-Dec-19 00:19N 36°34' W 006°55'27 5.6
2014-Dec-18 19:25N 36°34' W 006°21'0 0.1
2014-Dec-18 18:33N 36°34' W 006°21'1 1.0
2014-Dec-18 17:33N 36°33' W 006°20'  

Dump ship's entire track history